• Join FlightAware (Why Join?)
  • Login
  • US Flag 
08:39AM EST


 

Airport Tracker/Info


-or-


 

Live Flight TrackerFlight Track Log ✈ CES2343 ✈ 13-Jul-2013 ✈ ZLXY / XIY - ZUUU / CTU

Flight Track Log - Related Links

Times and Time Zones

All times are in EDT time to prevent confusion due to time zone crossing. See the CES2343 flight status page for this flight to view local times or setup timezone preferences in your user account.

Time Position Orientation Groundspeed Altitude Reporting Facility
EDT Latitude Longitude Course Direction KTS MPH feet Rate Location/Type
08:28AM 33.5163 107.5353 228° Southwest  Level Estimated
08:29AM 33.4442 107.4429 227° Southwest  Level Estimated
08:30AM 33.3721 107.3506 227° Southwest  Level Estimated
08:31AM 33.2999 107.2584 227° Southwest  Level Estimated
08:32AM 33.2276 107.1664 227° Southwest  Level Estimated
08:33AM 33.1552 107.0745 227° Southwest  Level Estimated
08:34AM 33.0828 106.9828 227° Southwest  Level Estimated
08:35AM 33.0103 106.8913 227° Southwest  Level Estimated
08:36AM 32.9377 106.7999 227° Southwest  Level Estimated
08:37AM 32.8651 106.7086 227° Southwest  Level Estimated
08:38AM 32.7924 106.6175 227° Southwest  Level Estimated
08:39AM 32.7197 106.5266 226° Southwest  Level Estimated
08:40AM 32.6468 106.4358 226° Southwest  Level Estimated
08:41AM 32.5739 106.3451 226° Southwest  Level Estimated
08:42AM 32.5010 106.2546 226° Southwest  Level Estimated
08:43AM 32.4280 106.1643 226° Southwest  Level Estimated
08:44AM 32.3549 106.0740 226° Southwest  Level Estimated
08:45AM 32.2817 105.9840 226° Southwest  Level Estimated
08:46AM 32.2085 105.8941 226° Southwest  Level Estimated
08:47AM 32.1352 105.8043 226° Southwest  Level Estimated
08:48AM 32.0619 105.7146 226° Southwest  Level Estimated
08:49AM 31.9885 105.6251 226° Southwest  Level Estimated
08:50AM 31.9150 105.5358 226° Southwest  Level Estimated
08:51AM 31.8415 105.4466 226° Southwest  Level Estimated
08:52AM 31.7679 105.3575 226° Southwest  Level Estimated
08:53AM 31.6943 105.2686 226° Southwest  Level Estimated
08:54AM 31.6205 105.1798 226° Southwest  Level Estimated
08:55AM 31.5468 105.0912 226° Southwest  Level Estimated
08:56AM 31.4729 105.0027 226° Southwest  Level Estimated
08:57AM 31.3990 104.9143 226° Southwest  Level Estimated
08:58AM 31.3251 104.8261 226° Southwest  Level Estimated
08:59AM 31.2511 104.7380 226° Southwest  Level Estimated
09:00AM 31.1770 104.6501 225° Southwest  Level Estimated
09:01AM 31.1028 104.5623 225° Southwest  Level Estimated
09:02AM 31.0286 104.4746 225° Southwest  Level Estimated
09:03AM 30.9544 104.3870 225° Southwest  Level Estimated
09:04AM 30.8801 104.2997 225° Southwest  Level Estimated
09:05AM 30.8057 104.2124 225° Southwest  Level Estimated
09:06AM 30.7313 104.1253 225° Southwest  Level Estimated
09:07AM 30.6568 104.0383 225° Southwest  Level Estimated
09:08AM 30.5822 103.9514 225° Southwest  Level Estimated
09:09AM 30.5785 103.9471 225° Southwest  Level Estimated
09:10AM 30.5785 103.9471 240° Southwest  Level Estimated
09:11AM 30.5785 103.9471 240° Southwest  Level Estimated
09:12AM 30.5785 103.9471 240° Southwest  Level Estimated
09:13AM 30.5785 103.9471 240° Southwest  Level Estimated
09:14AM 30.5785 103.9471 240° Southwest  Level Estimated
09:15AM 30.5785 103.9471 240° Southwest  Level Estimated
09:16AM 30.5785 103.9471 240° Southwest  Level Estimated
09:17AM 30.5785 103.9471 240° Southwest  Level Estimated
09:18AM 30.5785 103.9471 240° Southwest  Level Estimated
09:19AM 30.5785 103.9471 240° Southwest  Level Estimated
09:20AM 30.5785 103.9471 240° Southwest  Level Estimated
09:21AM 30.5785 103.9471 240° Southwest  Level Estimated
09:22AM 30.5785 103.9471 240° Southwest  Level Estimated
09:23AM 30.5785 103.9471 240° Southwest  Level Estimated
09:24AM 30.5785 103.9471 240° Southwest  Level Estimated